Lac Courte Oreilles Indian R, Wisconsin
Current Conditions -  °F | °C
As of 5:08 AM on Sunday 23 Nov 2014 (Local Time) from KASX Reporting Station
Haze Haze  
Wind Chill: 35°   Ceiling: 600
Heat Index: 35°   Visibility: 2.5mi
Dew Point: 34°   Wind: 0mph
Humidity: 96%   Direction: NA
Pressure: 29.46"   Gusts: NA
Location:  46.543°N, 90.8706°W
Report Text: KASX 231108Z AUTO 00000KT 2 1/2SM BR OVC006 02/01 A2946 RMK AO2 T00170011
Loading
Personal Weather Stations






























Interactive Weather Map New forecast layout! Learn more

10-Day Weather Forecast

Advertisements
Track Severe Weather on mobile